sensor_id;sensor_type;location;lat;lon;timestamp;P1;durP1;ratioP1;P2;durP2;ratioP2
15899;SDS011;8048;50.644;6.184;2023-08-21T00:01:18;11.00;;;9.00;;
15899;SDS011;8048;50.644;6.184;2023-08-21T00:03:43;10.47;;;9.03;;
15899;SDS011;8048;50.644;6.184;2023-08-21T00:06:09;10.00;;;8.73;;
15899;SDS011;8048;50.644;6.184;2023-08-21T00:08:35;9.60;;;8.70;;
15899;SDS011;8048;50.644;6.184;2023-08-21T00:11:01;12.00;;;9.20;;
15899;SDS011;8048;50.644;6.184;2023-08-21T00:13:26;13.70;;;9.30;;
15899;SDS011;8048;50.644;6.184;2023-08-21T00:15:52;10.53;;;9.50;;
15899;SDS011;8048;50.644;6.184;2023-08-21T00:18:17;11.20;;;10.40;;
15899;SDS011;8048;50.644;6.184;2023-08-21T00:20:43;9.60;;;8.40;;
15899;SDS011;8048;50.644;6.184;2023-08-21T00:23:09;10.03;;;9.00;;
15899;SDS011;8048;50.644;6.184;2023-08-21T00:25:34;9.80;;;8.80;;
15899;SDS011;8048;50.644;6.184;2023-08-21T00:28:00;10.20;;;9.43;;
15899;SDS011;8048;50.644;6.184;2023-08-21T00:30:26;9.93;;;9.00;;
15899;SDS011;8048;50.644;6.184;2023-08-21T00:32:51;10.10;;;9.20;;
15899;SDS011;8048;50.644;6.184;2023-08-21T00:35:17;10.30;;;9.30;;
15899;SDS011;8048;50.644;6.184;2023-08-21T00:37:42;10.07;;;9.07;;
15899;SDS011;8048;50.644;6.184;2023-08-21T00:40:08;10.90;;;9.83;;
15899;SDS011;8048;50.644;6.184;2023-08-21T00:42:34;10.30;;;9.50;;
15899;SDS011;8048;50.644;6.184;2023-08-21T00:44:59;11.27;;;10.03;;
15899;SDS011;8048;50.644;6.184;2023-08-21T00:47:25;10.47;;;9.47;;
15899;SDS011;8048;50.644;6.184;2023-08-21T00:49:51;9.10;;;8.30;;
15899;SDS011;8048;50.644;6.184;2023-08-21T00:52:16;9.77;;;8.93;;
15899;SDS011;8048;50.644;6.184;2023-08-21T00:54:43;10.37;;;9.40;;
15899;SDS011;8048;50.644;6.184;2023-08-21T00:57:09;9.93;;;8.93;;
15899;SDS011;8048;50.644;6.184;2023-08-21T00:59:35;10.07;;;9.03;;
15899;SDS011;8048;50.644;6.184;2023-08-21T01:02:02;12.03;;;10.87;;
15899;SDS011;8048;50.644;6.184;2023-08-21T01:04:28;10.83;;;10.03;;
15899;SDS011;8048;50.644;6.184;2023-08-21T01:06:53;10.07;;;9.37;;
15899;SDS011;8048;50.644;6.184;2023-08-21T01:09:33;11.37;;;10.47;;
15899;SDS011;8048;50.644;6.184;2023-08-21T01:12:22;14.20;;;11.80;;
15899;SDS011;8048;50.644;6.184;2023-08-21T01:17:22;13.07;;;11.90;;
15899;SDS011;8048;50.644;6.184;2023-08-21T01:19:49;10.93;;;9.93;;
15899;SDS011;8048;50.644;6.184;2023-08-21T01:22:15;12.13;;;10.90;;
15899;SDS011;8048;50.644;6.184;2023-08-21T01:24:41;12.70;;;11.60;;
15899;SDS011;8048;50.644;6.184;2023-08-21T01:27:07;12.60;;;10.77;;
15899;SDS011;8048;50.644;6.184;2023-08-21T01:29:33;11.70;;;10.60;;
15899;SDS011;8048;50.644;6.184;2023-08-21T01:32:06;13.00;;;11.70;;
15899;SDS011;8048;50.644;6.184;2023-08-21T01:34:43;10.53;;;9.73;;
15899;SDS011;8048;50.644;6.184;2023-08-21T01:37:11;12.80;;;11.70;;
15899;SDS011;8048;50.644;6.184;2023-08-21T01:39:37;14.83;;;12.50;;
15899;SDS011;8048;50.644;6.184;2023-08-21T01:42:02;12.87;;;11.70;;
15899;SDS011;8048;50.644;6.184;2023-08-21T01:44:28;14.17;;;12.97;;
15899;SDS011;8048;50.644;6.184;2023-08-21T01:46:53;11.93;;;11.03;;
15899;SDS011;8048;50.644;6.184;2023-08-21T01:49:19;11.60;;;10.60;;
15899;SDS011;8048;50.644;6.184;2023-08-21T01:51:45;11.10;;;10.20;;
15899;SDS011;8048;50.644;6.184;2023-08-21T01:56:43;9.63;;;8.73;;
15899;SDS011;8048;50.644;6.184;2023-08-21T01:59:09;10.20;;;9.50;;
15899;SDS011;8048;50.644;6.184;2023-08-21T02:01:34;11.87;;;10.50;;
15899;SDS011;8048;50.644;6.184;2023-08-21T02:04:00;10.93;;;10.13;;
15899;SDS011;8048;50.644;6.184;2023-08-21T02:06:25;9.77;;;8.97;;
15899;SDS011;8048;50.644;6.184;2023-08-21T02:08:51;9.50;;;8.80;;
15899;SDS011;8048;50.644;6.184;2023-08-21T02:11:17;10.63;;;9.77;;
15899;SDS011;8048;50.644;6.184;2023-08-21T02:13:42;11.27;;;10.17;;
15899;SDS011;8048;50.644;6.184;2023-08-21T02:16:08;11.83;;;10.80;;
15899;SDS011;8048;50.644;6.184;2023-08-21T02:18:33;10.60;;;9.60;;
15899;SDS011;8048;50.644;6.184;2023-08-21T02:21:02;11.03;;;10.03;;
15899;SDS011;8048;50.644;6.184;2023-08-21T02:23:27;11.50;;;10.60;;
15899;SDS011;8048;50.644;6.184;2023-08-21T02:25:54;13.67;;;11.20;;
15899;SDS011;8048;50.644;6.184;2023-08-21T02:28:19;12.07;;;11.07;;
15899;SDS011;8048;50.644;6.184;2023-08-21T02:30:45;12.23;;;9.90;;
15899;SDS011;8048;50.644;6.184;2023-08-21T02:33:10;12.37;;;11.37;;
15899;SDS011;8048;50.644;6.184;2023-08-21T02:35:36;11.17;;;10.10;;
15899;SDS011;8048;50.644;6.184;2023-08-21T02:38:02;11.10;;;10.37;;
15899;SDS011;8048;50.644;6.184;2023-08-21T02:40:27;11.40;;;10.30;;
15899;SDS011;8048;50.644;6.184;2023-08-21T02:42:53;11.37;;;10.27;;
15899;SDS011;8048;50.644;6.184;2023-08-21T02:45:19;10.97;;;9.87;;
15899;SDS011;8048;50.644;6.184;2023-08-21T02:47:44;11.63;;;10.63;;
15899;SDS011;8048;50.644;6.184;2023-08-21T02:50:10;11.03;;;10.20;;
15899;SDS011;8048;50.644;6.184;2023-08-21T02:52:36;10.00;;;9.00;;
15899;SDS011;8048;50.644;6.184;2023-08-21T02:55:02;12.23;;;9.83;;
15899;SDS011;8048;50.644;6.184;2023-08-21T02:57:29;10.67;;;9.90;;
15899;SDS011;8048;50.644;6.184;2023-08-21T02:59:54;12.90;;;11.60;;
15899;SDS011;8048;50.644;6.184;2023-08-21T03:02:20;12.20;;;11.10;;
15899;SDS011;8048;50.644;6.184;2023-08-21T03:04:46;10.47;;;9.67;;
15899;SDS011;8048;50.644;6.184;2023-08-21T03:07:12;10.70;;;9.80;;
15899;SDS011;8048;50.644;6.184;2023-08-21T03:09:38;14.33;;;11.73;;
15899;SDS011;8048;50.644;6.184;2023-08-21T03:12:05;10.93;;;10.13;;
15899;SDS011;8048;50.644;6.184;2023-08-21T03:14:31;11.37;;;10.30;;
15899;SDS011;8048;50.644;6.184;2023-08-21T03:16:57;11.17;;;10.27;;
15899;SDS011;8048;50.644;6.184;2023-08-21T03:19:23;10.93;;;10.13;;
15899;SDS011;8048;50.644;6.184;2023-08-21T03:21:48;10.43;;;9.63;;
15899;SDS011;8048;50.644;6.184;2023-08-21T03:24:14;11.30;;;10.10;;
15899;SDS011;8048;50.644;6.184;2023-08-21T03:26:40;9.90;;;9.20;;
15899;SDS011;8048;50.644;6.184;2023-08-21T03:29:05;12.83;;;11.70;;
15899;SDS011;8048;50.644;6.184;2023-08-21T03:31:31;11.63;;;10.50;;
15899;SDS011;8048;50.644;6.184;2023-08-21T03:33:56;11.93;;;10.83;;
15899;SDS011;8048;50.644;6.184;2023-08-21T03:36:22;12.20;;;10.97;;
15899;SDS011;8048;50.644;6.184;2023-08-21T03:38:58;11.63;;;10.73;;
15899;SDS011;8048;50.644;6.184;2023-08-21T03:41:29;11.57;;;10.37;;
15899;SDS011;8048;50.644;6.184;2023-08-21T03:43:54;11.23;;;10.20;;
15899;SDS011;8048;50.644;6.184;2023-08-21T03:46:20;11.97;;;10.80;;
15899;SDS011;8048;50.644;6.184;2023-08-21T03:48:45;11.53;;;10.40;;
15899;SDS011;8048;50.644;6.184;2023-08-21T03:51:11;11.03;;;10.13;;
15899;SDS011;8048;50.644;6.184;2023-08-21T03:53:36;11.17;;;10.17;;
15899;SDS011;8048;50.644;6.184;2023-08-21T03:56:02;10.47;;;9.67;;
15899;SDS011;8048;50.644;6.184;2023-08-21T03:58:28;10.47;;;9.67;;
15899;SDS011;8048;50.644;6.184;2023-08-21T04:00:53;11.03;;;10.07;;
15899;SDS011;8048;50.644;6.184;2023-08-21T04:03:19;10.83;;;9.93;;
15899;SDS011;8048;50.644;6.184;2023-08-21T04:05:45;9.73;;;9.13;;
15899;SDS011;8048;50.644;6.184;2023-08-21T04:08:11;9.13;;;8.43;;
15899;SDS011;8048;50.644;6.184;2023-08-21T04:10:36;10.30;;;9.50;;
15899;SDS011;8048;50.644;6.184;2023-08-21T04:13:03;11.00;;;10.10;;
15899;SDS011;8048;50.644;6.184;2023-08-21T04:15:29;10.83;;;9.83;;
15899;SDS011;8048;50.644;6.184;2023-08-21T04:17:55;9.50;;;8.60;;
15899;SDS011;8048;50.644;6.184;2023-08-21T04:20:20;11.73;;;10.83;;
15899;SDS011;8048;50.644;6.184;2023-08-21T04:22:46;11.10;;;9.97;;
15899;SDS011;8048;50.644;6.184;2023-08-21T04:25:12;9.43;;;8.67;;
15899;SDS011;8048;50.644;6.184;2023-08-21T04:27:38;10.50;;;9.33;;
15899;SDS011;8048;50.644;6.184;2023-08-21T04:30:04;11.43;;;10.50;;
15899;SDS011;8048;50.644;6.184;2023-08-21T04:32:30;9.67;;;9.07;;
15899;SDS011;8048;50.644;6.184;2023-08-21T04:34:56;9.30;;;8.00;;
15899;SDS011;8048;50.644;6.184;2023-08-21T04:37:21;9.57;;;8.80;;
15899;SDS011;8048;50.644;6.184;2023-08-21T04:39:51;10.47;;;9.70;;
15899;SDS011;8048;50.644;6.184;2023-08-21T04:42:19;11.10;;;10.10;;
15899;SDS011;8048;50.644;6.184;2023-08-21T04:44:46;10.37;;;9.40;;
15899;SDS011;8048;50.644;6.184;2023-08-21T04:49:48;8.23;;;7.73;;
15899;SDS011;8048;50.644;6.184;2023-08-21T04:52:14;9.53;;;8.83;;
15899;SDS011;8048;50.644;6.184;2023-08-21T04:54:40;9.60;;;8.80;;
15899;SDS011;8048;50.644;6.184;2023-08-21T04:57:05;10.87;;;9.97;;
15899;SDS011;8048;50.644;6.184;2023-08-21T04:59:31;10.30;;;9.50;;
15899;SDS011;8048;50.644;6.184;2023-08-21T05:01:56;9.57;;;8.83;;
15899;SDS011;8048;50.644;6.184;2023-08-21T05:04:22;8.17;;;7.60;;
15899;SDS011;8048;50.644;6.184;2023-08-21T05:06:47;10.20;;;9.40;;
15899;SDS011;8048;50.644;6.184;2023-08-21T05:09:13;10.40;;;9.43;;
15899;SDS011;8048;50.644;6.184;2023-08-21T05:11:38;10.50;;;9.60;;
15899;SDS011;8048;50.644;6.184;2023-08-21T05:14:04;9.80;;;9.00;;
15899;SDS011;8048;50.644;6.184;2023-08-21T05:16:29;9.13;;;8.43;;
15899;SDS011;8048;50.644;6.184;2023-08-21T05:18:55;9.07;;;8.47;;
15899;SDS011;8048;50.644;6.184;2023-08-21T05:21:20;11.00;;;9.77;;
15899;SDS011;8048;50.644;6.184;2023-08-21T05:23:46;9.00;;;8.40;;
15899;SDS011;8048;50.644;6.184;2023-08-21T05:26:11;9.77;;;8.93;;
15899;SDS011;8048;50.644;6.184;2023-08-21T05:28:37;9.50;;;8.80;;
15899;SDS011;8048;50.644;6.184;2023-08-21T05:31:02;10.30;;;9.40;;
15899;SDS011;8048;50.644;6.184;2023-08-21T05:33:28;10.33;;;9.47;;
15899;SDS011;8048;50.644;6.184;2023-08-21T05:35:55;11.57;;;10.43;;
15899;SDS011;8048;50.644;6.184;2023-08-21T05:38:21;11.40;;;10.50;;
15899;SDS011;8048;50.644;6.184;2023-08-21T05:40:47;11.80;;;10.87;;
15899;SDS011;8048;50.644;6.184;2023-08-21T05:43:13;10.50;;;9.73;;
15899;SDS011;8048;50.644;6.184;2023-08-21T05:45:39;11.53;;;10.43;;
15899;SDS011;8048;50.644;6.184;2023-08-21T05:48:04;10.60;;;9.80;;
15899;SDS011;8048;50.644;6.184;2023-08-21T05:50:30;10.37;;;9.50;;
15899;SDS011;8048;50.644;6.184;2023-08-21T05:52:56;11.70;;;10.57;;
15899;SDS011;8048;50.644;6.184;2023-08-21T05:55:22;12.13;;;11.10;;
15899;SDS011;8048;50.644;6.184;2023-08-21T05:57:48;10.70;;;9.80;;
15899;SDS011;8048;50.644;6.184;2023-08-21T06:00:14;11.20;;;10.30;;
15899;SDS011;8048;50.644;6.184;2023-08-21T06:02:40;11.37;;;10.37;;
15899;SDS011;8048;50.644;6.184;2023-08-21T06:05:08;11.43;;;10.53;;
15899;SDS011;8048;50.644;6.184;2023-08-21T06:07:34;11.57;;;10.60;;
15899;SDS011;8048;50.644;6.184;2023-08-21T06:09:59;10.87;;;9.90;;
15899;SDS011;8048;50.644;6.184;2023-08-21T06:12:25;9.93;;;9.13;;
15899;SDS011;8048;50.644;6.184;2023-08-21T06:14:50;10.97;;;9.97;;
15899;SDS011;8048;50.644;6.184;2023-08-21T06:17:16;10.73;;;9.67;;
15899;SDS011;8048;50.644;6.184;2023-08-21T06:19:41;10.33;;;9.53;;
15899;SDS011;8048;50.644;6.184;2023-08-21T06:22:07;12.23;;;11.07;;
15899;SDS011;8048;50.644;6.184;2023-08-21T06:24:32;11.20;;;10.00;;
15899;SDS011;8048;50.644;6.184;2023-08-21T06:26:58;9.80;;;9.00;;
15899;SDS011;8048;50.644;6.184;2023-08-21T06:29:24;9.77;;;8.63;;
15899;SDS011;8048;50.644;6.184;2023-08-21T06:31:49;9.57;;;8.60;;
15899;SDS011;8048;50.644;6.184;2023-08-21T06:34:15;10.67;;;9.67;;
15899;SDS011;8048;50.644;6.184;2023-08-21T06:36:40;10.37;;;9.43;;
15899;SDS011;8048;50.644;6.184;2023-08-21T06:39:06;13.53;;;10.27;;
15899;SDS011;8048;50.644;6.184;2023-08-21T06:41:31;8.43;;;7.70;;
15899;SDS011;8048;50.644;6.184;2023-08-21T06:43:57;9.20;;;8.20;;
15899;SDS011;8048;50.644;6.184;2023-08-21T06:46:23;9.20;;;8.50;;
15899;SDS011;8048;50.644;6.184;2023-08-21T06:48:48;8.57;;;7.80;;
15899;SDS011;8048;50.644;6.184;2023-08-21T06:51:15;9.77;;;8.97;;
15899;SDS011;8048;50.644;6.184;2023-08-21T06:53:41;8.97;;;8.27;;
15899;SDS011;8048;50.644;6.184;2023-08-21T06:56:06;8.70;;;7.80;;
15899;SDS011;8048;50.644;6.184;2023-08-21T06:58:32;8.20;;;7.50;;
15899;SDS011;8048;50.644;6.184;2023-08-21T07:00:59;8.27;;;7.47;;
15899;SDS011;8048;50.644;6.184;2023-08-21T07:03:26;8.50;;;7.47;;
15899;SDS011;8048;50.644;6.184;2023-08-21T07:05:58;10.27;;;9.37;;
15899;SDS011;8048;50.644;6.184;2023-08-21T07:08:25;8.40;;;7.70;;
15899;SDS011;8048;50.644;6.184;2023-08-21T07:10:51;9.70;;;8.90;;
15899;SDS011;8048;50.644;6.184;2023-08-21T07:13:17;7.20;;;6.50;;
15899;SDS011;8048;50.644;6.184;2023-08-21T07:15:43;8.33;;;7.63;;
15899;SDS011;8048;50.644;6.184;2023-08-21T07:18:09;9.47;;;8.73;;
15899;SDS011;8048;50.644;6.184;2023-08-21T07:20:34;8.93;;;8.10;;
15899;SDS011;8048;50.644;6.184;2023-08-21T07:23:00;10.37;;;9.10;;
15899;SDS011;8048;50.644;6.184;2023-08-21T07:25:26;9.53;;;8.83;;
15899;SDS011;8048;50.644;6.184;2023-08-21T07:27:53;8.43;;;7.73;;
15899;SDS011;8048;50.644;6.184;2023-08-21T07:30:19;10.70;;;8.43;;
15899;SDS011;8048;50.644;6.184;2023-08-21T07:32:45;7.93;;;7.23;;
15899;SDS011;8048;50.644;6.184;2023-08-21T07:35:11;10.13;;;8.90;;
15899;SDS011;8048;50.644;6.184;2023-08-21T07:37:36;8.30;;;7.50;;
15899;SDS011;8048;50.644;6.184;2023-08-21T07:40:02;8.57;;;7.90;;
15899;SDS011;8048;50.644;6.184;2023-08-21T07:42:30;8.43;;;7.50;;
15899;SDS011;8048;50.644;6.184;2023-08-21T07:44:55;6.73;;;6.23;;
15899;SDS011;8048;50.644;6.184;2023-08-21T07:47:21;8.10;;;7.30;;
15899;SDS011;8048;50.644;6.184;2023-08-21T07:49:47;8.47;;;7.57;;
15899;SDS011;8048;50.644;6.184;2023-08-21T07:52:12;8.30;;;6.50;;
15899;SDS011;8048;50.644;6.184;2023-08-21T07:57:08;6.77;;;6.17;;
15899;SDS011;8048;50.644;6.184;2023-08-21T07:59:34;7.83;;;7.33;;
15899;SDS011;8048;50.644;6.184;2023-08-21T08:01:59;8.80;;;8.10;;
15899;SDS011;8048;50.644;6.184;2023-08-21T08:04:25;8.03;;;6.50;;
15899;SDS011;8048;50.644;6.184;2023-08-21T08:06:51;7.20;;;6.60;;
15899;SDS011;8048;50.644;6.184;2023-08-21T08:09:17;5.77;;;5.17;;
15899;SDS011;8048;50.644;6.184;2023-08-21T08:11:43;6.50;;;6.10;;
15899;SDS011;8048;50.644;6.184;2023-08-21T08:14:08;9.00;;;6.63;;
15899;SDS011;8048;50.644;6.184;2023-08-21T08:16:34;7.70;;;6.83;;
15899;SDS011;8048;50.644;6.184;2023-08-21T08:18:59;7.73;;;7.00;;
15899;SDS011;8048;50.644;6.184;2023-08-21T08:21:25;9.53;;;6.97;;
15899;SDS011;8048;50.644;6.184;2023-08-21T08:23:50;7.67;;;6.90;;
15899;SDS011;8048;50.644;6.184;2023-08-21T08:26:16;7.00;;;6.50;;
15899;SDS011;8048;50.644;6.184;2023-08-21T08:28:42;8.33;;;7.53;;
15899;SDS011;8048;50.644;6.184;2023-08-21T08:31:14;6.43;;;5.83;;
15899;SDS011;8048;50.644;6.184;2023-08-21T08:33:43;6.33;;;5.90;;
15899;SDS011;8048;50.644;6.184;2023-08-21T08:36:09;9.37;;;7.03;;
15899;SDS011;8048;50.644;6.184;2023-08-21T08:38:35;9.33;;;8.23;;
15899;SDS011;8048;50.644;6.184;2023-08-21T08:41:02;8.57;;;7.83;;
15899;SDS011;8048;50.644;6.184;2023-08-21T08:43:32;8.10;;;7.23;;
15899;SDS011;8048;50.644;6.184;2023-08-21T08:46:02;8.10;;;7.40;;
15899;SDS011;8048;50.644;6.184;2023-08-21T08:48:28;6.00;;;5.50;;
15899;SDS011;8048;50.644;6.184;2023-08-21T08:50:54;7.00;;;6.50;;
15899;SDS011;8048;50.644;6.184;2023-08-21T08:53:20;6.60;;;6.10;;
15899;SDS011;8048;50.644;6.184;2023-08-21T08:55:46;8.07;;;7.47;;
15899;SDS011;8048;50.644;6.184;2023-08-21T08:58:11;8.73;;;8.00;;
15899;SDS011;8048;50.644;6.184;2023-08-21T09:00:37;7.77;;;6.80;;
15899;SDS011;8048;50.644;6.184;2023-08-21T09:03:03;8.70;;;8.00;;
15899;SDS011;8048;50.644;6.184;2023-08-21T09:05:29;7.37;;;6.67;;
15899;SDS011;8048;50.644;6.184;2023-08-21T09:10:49;8.23;;;7.63;;
15899;SDS011;8048;50.644;6.184;2023-08-21T09:13:15;7.37;;;6.77;;
15899;SDS011;8048;50.644;6.184;2023-08-21T09:15:44;9.30;;;8.50;;
15899;SDS011;8048;50.644;6.184;2023-08-21T09:18:12;8.60;;;7.80;;
15899;SDS011;8048;50.644;6.184;2023-08-21T09:20:38;6.77;;;6.17;;
15899;SDS011;8048;50.644;6.184;2023-08-21T09:23:04;9.80;;;7.00;;
15899;SDS011;8048;50.644;6.184;2023-08-21T09:25:33;8.30;;;7.50;;
15899;SDS011;8048;50.644;6.184;2023-08-21T09:28:01;9.73;;;8.47;;
15899;SDS011;8048;50.644;6.184;2023-08-21T09:30:31;7.30;;;6.70;;
15899;SDS011;8048;50.644;6.184;2023-08-21T09:33:18;8.87;;;8.10;;
15899;SDS011;8048;50.644;6.184;2023-08-21T09:35:45;8.27;;;7.47;;
15899;SDS011;8048;50.644;6.184;2023-08-21T09:38:10;9.07;;;8.20;;
15899;SDS011;8048;50.644;6.184;2023-08-21T09:40:44;8.30;;;7.60;;
15899;SDS011;8048;50.644;6.184;2023-08-21T09:43:18;8.23;;;7.53;;
15899;SDS011;8048;50.644;6.184;2023-08-21T09:45:47;9.37;;;8.67;;
15899;SDS011;8048;50.644;6.184;2023-08-21T09:48:13;10.40;;;8.80;;
15899;SDS011;8048;50.644;6.184;2023-08-21T09:50:39;9.13;;;8.43;;
15899;SDS011;8048;50.644;6.184;2023-08-21T09:53:09;14.30;;;11.10;;
15899;SDS011;8048;50.644;6.184;2023-08-21T09:55:35;9.70;;;8.80;;
15899;SDS011;8048;50.644;6.184;2023-08-21T09:58:01;9.63;;;8.63;;
15899;SDS011;8048;50.644;6.184;2023-08-21T10:00:35;8.23;;;7.50;;
15899;SDS011;8048;50.644;6.184;2023-08-21T10:03:03;11.87;;;10.67;;
15899;SDS011;8048;50.644;6.184;2023-08-21T10:05:30;10.10;;;9.20;;
15899;SDS011;8048;50.644;6.184;2023-08-21T10:07:57;11.50;;;8.13;;
15899;SDS011;8048;50.644;6.184;2023-08-21T10:10:28;11.13;;;9.00;;
15899;SDS011;8048;50.644;6.184;2023-08-21T10:12:58;11.40;;;8.13;;
15899;SDS011;8048;50.644;6.184;2023-08-21T10:15:24;10.20;;;9.30;;
15899;SDS011;8048;50.644;6.184;2023-08-21T10:17:52;9.53;;;8.57;;
15899;SDS011;8048;50.644;6.184;2023-08-21T10:20:21;8.27;;;7.50;;
15899;SDS011;8048;50.644;6.184;2023-08-21T10:22:48;8.60;;;7.90;;
15899;SDS011;8048;50.644;6.184;2023-08-21T10:25:15;8.07;;;7.20;;
15899;SDS011;8048;50.644;6.184;2023-08-21T10:27:42;9.10;;;8.30;;
15899;SDS011;8048;50.644;6.184;2023-08-21T10:30:12;9.10;;;8.40;;
15899;SDS011;8048;50.644;6.184;2023-08-21T10:32:49;9.53;;;8.13;;
15899;SDS011;8048;50.644;6.184;2023-08-21T10:35:18;9.00;;;8.30;;
15899;SDS011;8048;50.644;6.184;2023-08-21T10:40:32;10.10;;;9.20;;
15899;SDS011;8048;50.644;6.184;2023-08-21T10:42:59;8.87;;;7.97;;
15899;SDS011;8048;50.644;6.184;2023-08-21T10:45:25;10.27;;;9.37;;
15899;SDS011;8048;50.644;6.184;2023-08-21T10:47:50;10.40;;;8.57;;
15899;SDS011;8048;50.644;6.184;2023-08-21T10:50:16;9.80;;;8.17;;
15899;SDS011;8048;50.644;6.184;2023-08-21T10:52:42;11.10;;;9.10;;
15899;SDS011;8048;50.644;6.184;2023-08-21T10:55:10;10.10;;;9.10;;
15899;SDS011;8048;50.644;6.184;2023-08-21T10:57:37;9.17;;;8.43;;
15899;SDS011;8048;50.644;6.184;2023-08-21T11:00:04;9.00;;;8.20;;
15899;SDS011;8048;50.644;6.184;2023-08-21T11:02:35;9.50;;;8.60;;
15899;SDS011;8048;50.644;6.184;2023-08-21T11:05:02;7.40;;;6.80;;
15899;SDS011;8048;50.644;6.184;2023-08-21T11:07:28;9.63;;;8.67;;
15899;SDS011;8048;50.644;6.184;2023-08-21T11:09:54;9.50;;;8.63;;
15899;SDS011;8048;50.644;6.184;2023-08-21T11:12:21;9.63;;;8.70;;
15899;SDS011;8048;50.644;6.184;2023-08-21T11:14:48;13.10;;;10.60;;
15899;SDS011;8048;50.644;6.184;2023-08-21T11:17:14;10.27;;;9.43;;
15899;SDS011;8048;50.644;6.184;2023-08-21T11:19:40;9.40;;;8.53;;
15899;SDS011;8048;50.644;6.184;2023-08-21T11:22:06;11.30;;;8.80;;
15899;SDS011;8048;50.644;6.184;2023-08-21T11:24:45;9.63;;;8.63;;
15899;SDS011;8048;50.644;6.184;2023-08-21T11:27:12;8.60;;;7.73;;
15899;SDS011;8048;50.644;6.184;2023-08-21T11:29:40;9.73;;;6.80;;
15899;SDS011;8048;50.644;6.184;2023-08-21T11:32:10;7.90;;;7.20;;
15899;SDS011;8048;50.644;6.184;2023-08-21T11:34:41;8.13;;;7.33;;
15899;SDS011;8048;50.644;6.184;2023-08-21T11:37:11;8.90;;;8.00;;
15899;SDS011;8048;50.644;6.184;2023-08-21T11:40:10;8.33;;;7.63;;
15899;SDS011;8048;50.644;6.184;2023-08-21T11:42:33;9.67;;;8.83;;
15899;SDS011;8048;50.644;6.184;2023-08-21T11:44:59;8.93;;;7.93;;
15899;SDS011;8048;50.644;6.184;2023-08-21T11:47:30;8.03;;;7.33;;
15899;SDS011;8048;50.644;6.184;2023-08-21T11:49:57;9.53;;;8.40;;
15899;SDS011;8048;50.644;6.184;2023-08-21T11:52:30;10.60;;;9.00;;
15899;SDS011;8048;50.644;6.184;2023-08-21T11:54:57;9.93;;;7.60;;
15899;SDS011;8048;50.644;6.184;2023-08-21T11:57:23;7.37;;;6.70;;
15899;SDS011;8048;50.644;6.184;2023-08-21T11:59:49;9.90;;;8.00;;
15899;SDS011;8048;50.644;6.184;2023-08-21T12:02:17;7.67;;;7.13;;
15899;SDS011;8048;50.644;6.184;2023-08-21T12:04:51;8.47;;;7.67;;
15899;SDS011;8048;50.644;6.184;2023-08-21T12:07:17;8.30;;;7.60;;
15899;SDS011;8048;50.644;6.184;2023-08-21T12:09:46;8.17;;;7.33;;
15899;SDS011;8048;50.644;6.184;2023-08-21T12:12:15;7.00;;;6.50;;
15899;SDS011;8048;50.644;6.184;2023-08-21T12:14:41;8.07;;;7.27;;
15899;SDS011;8048;50.644;6.184;2023-08-21T12:17:06;9.77;;;7.90;;
15899;SDS011;8048;50.644;6.184;2023-08-21T12:19:32;7.73;;;7.03;;
15899;SDS011;8048;50.644;6.184;2023-08-21T12:21:58;7.23;;;6.77;;
15899;SDS011;8048;50.644;6.184;2023-08-21T12:24:23;7.40;;;6.70;;
15899;SDS011;8048;50.644;6.184;2023-08-21T12:26:49;7.60;;;6.90;;
15899;SDS011;8048;50.644;6.184;2023-08-21T12:29:15;6.80;;;6.30;;
15899;SDS011;8048;50.644;6.184;2023-08-21T12:31:40;8.30;;;7.20;;
15899;SDS011;8048;50.644;6.184;2023-08-21T12:34:06;7.33;;;6.83;;
15899;SDS011;8048;50.644;6.184;2023-08-21T12:36:33;7.20;;;5.80;;
15899;SDS011;8048;50.644;6.184;2023-08-21T12:39:01;8.93;;;6.87;;
15899;SDS011;8048;50.644;6.184;2023-08-21T12:41:28;5.73;;;5.33;;
15899;SDS011;8048;50.644;6.184;2023-08-21T12:43:53;6.07;;;5.57;;
15899;SDS011;8048;50.644;6.184;2023-08-21T12:46:19;6.30;;;5.80;;
15899;SDS011;8048;50.644;6.184;2023-08-21T12:48:44;5.30;;;4.90;;
15899;SDS011;8048;50.644;6.184;2023-08-21T12:51:10;5.10;;;4.60;;
15899;SDS011;8048;50.644;6.184;2023-08-21T12:53:35;5.70;;;4.57;;
15899;SDS011;8048;50.644;6.184;2023-08-21T12:56:01;5.33;;;5.03;;
15899;SDS011;8048;50.644;6.184;2023-08-21T12:58:26;5.30;;;5.00;;
15899;SDS011;8048;50.644;6.184;2023-08-21T13:00:53;5.80;;;5.33;;
15899;SDS011;8048;50.644;6.184;2023-08-21T13:03:19;5.13;;;4.80;;
15899;SDS011;8048;50.644;6.184;2023-08-21T13:05:45;6.27;;;5.57;;
15899;SDS011;8048;50.644;6.184;2023-08-21T13:08:10;6.07;;;5.60;;
15899;SDS011;8048;50.644;6.184;2023-08-21T13:10:36;6.43;;;5.87;;
15899;SDS011;8048;50.644;6.184;2023-08-21T13:13:01;5.30;;;5.00;;
15899;SDS011;8048;50.644;6.184;2023-08-21T13:15:27;6.60;;;5.93;;
15899;SDS011;8048;50.644;6.184;2023-08-21T13:17:53;6.80;;;6.33;;
15899;SDS011;8048;50.644;6.184;2023-08-21T13:20:19;5.57;;;4.80;;
15899;SDS011;8048;50.644;6.184;2023-08-21T13:22:47;4.97;;;4.57;;
15899;SDS011;8048;50.644;6.184;2023-08-21T13:25:16;5.57;;;5.10;;
15899;SDS011;8048;50.644;6.184;2023-08-21T13:27:45;5.63;;;5.13;;
15899;SDS011;8048;50.644;6.184;2023-08-21T13:30:11;6.00;;;5.47;;
15899;SDS011;8048;50.644;6.184;2023-08-21T13:32:37;5.13;;;4.73;;
15899;SDS011;8048;50.644;6.184;2023-08-21T13:35:03;4.37;;;4.07;;
15899;SDS011;8048;50.644;6.184;2023-08-21T13:37:33;4.70;;;4.37;;
15899;SDS011;8048;50.644;6.184;2023-08-21T13:40:00;3.50;;;3.30;;
15899;SDS011;8048;50.644;6.184;2023-08-21T13:42:33;4.63;;;4.17;;
15899;SDS011;8048;50.644;6.184;2023-08-21T13:45:02;4.60;;;4.40;;
15899;SDS011;8048;50.644;6.184;2023-08-21T13:47:28;4.40;;;4.00;;
15899;SDS011;8048;50.644;6.184;2023-08-21T13:49:53;4.40;;;4.10;;
15899;SDS011;8048;50.644;6.184;2023-08-21T13:52:19;5.70;;;4.67;;
15899;SDS011;8048;50.644;6.184;2023-08-21T13:54:45;6.43;;;4.20;;
15899;SDS011;8048;50.644;6.184;2023-08-21T13:57:10;4.03;;;3.77;;
15899;SDS011;8048;50.644;6.184;2023-08-21T13:59:36;4.60;;;4.20;;
15899;SDS011;8048;50.644;6.184;2023-08-21T14:02:01;5.30;;;4.80;;
15899;SDS011;8048;50.644;6.184;2023-08-21T14:04:27;4.97;;;4.10;;
15899;SDS011;8048;50.644;6.184;2023-08-21T14:06:53;4.20;;;4.00;;
15899;SDS011;8048;50.644;6.184;2023-08-21T14:09:18;5.30;;;3.83;;
15899;SDS011;8048;50.644;6.184;2023-08-21T14:11:44;6.27;;;4.13;;
15899;SDS011;8048;50.644;6.184;2023-08-21T14:14:09;4.47;;;3.70;;
15899;SDS011;8048;50.644;6.184;2023-08-21T14:16:35;3.80;;;3.60;;
15899;SDS011;8048;50.644;6.184;2023-08-21T14:19:00;3.97;;;3.67;;
15899;SDS011;8048;50.644;6.184;2023-08-21T14:21:26;3.93;;;3.70;;
15899;SDS011;8048;50.644;6.184;2023-08-21T14:23:51;4.23;;;4.03;;
15899;SDS011;8048;50.644;6.184;2023-08-21T14:26:17;6.50;;;5.00;;
15899;SDS011;8048;50.644;6.184;2023-08-21T14:28:42;3.10;;;2.90;;
15899;SDS011;8048;50.644;6.184;2023-08-21T14:31:14;3.70;;;3.40;;
15899;SDS011;8048;50.644;6.184;2023-08-21T14:33:39;2.93;;;2.83;;
15899;SDS011;8048;50.644;6.184;2023-08-21T14:36:05;5.87;;;3.70;;
15899;SDS011;8048;50.644;6.184;2023-08-21T14:38:30;4.57;;;4.27;;
15899;SDS011;8048;50.644;6.184;2023-08-21T14:40:56;3.80;;;3.50;;
15899;SDS011;8048;50.644;6.184;2023-08-21T14:43:22;3.67;;;3.47;;
15899;SDS011;8048;50.644;6.184;2023-08-21T14:45:47;3.40;;;3.20;;
15899;SDS011;8048;50.644;6.184;2023-08-21T14:48:13;3.80;;;3.60;;
15899;SDS011;8048;50.644;6.184;2023-08-21T14:50:38;3.80;;;3.40;;
15899;SDS011;8048;50.644;6.184;2023-08-21T14:53:04;2.80;;;2.70;;
15899;SDS011;8048;50.644;6.184;2023-08-21T14:55:29;3.70;;;3.50;;
15899;SDS011;8048;50.644;6.184;2023-08-21T14:57:55;3.47;;;3.27;;
15899;SDS011;8048;50.644;6.184;2023-08-21T15:00:21;4.07;;;3.17;;
15899;SDS011;8048;50.644;6.184;2023-08-21T15:02:46;3.70;;;3.37;;
15899;SDS011;8048;50.644;6.184;2023-08-21T15:05:12;3.73;;;3.27;;